createdAt,value
2023-05-22T00:02:08.281Z,21.44
2023-05-22T00:04:35.405Z,21.56
2023-05-22T00:07:02.158Z,21.48
2023-05-22T00:09:28.887Z,21.48
2023-05-22T00:11:56.816Z,21.29
2023-05-22T00:14:23.606Z,21.15
2023-05-22T00:16:50.498Z,20.96
2023-05-22T00:19:21.117Z,21.04
2023-05-22T00:21:47.946Z,20.93
2023-05-22T00:24:14.670Z,20.92
2023-05-22T00:26:41.491Z,20.97
2023-05-22T00:29:08.449Z,21.01
2023-05-22T00:31:35.296Z,20.95
2023-05-22T00:34:02.114Z,21.05
2023-05-22T00:36:29.086Z,20.94
2023-05-22T00:38:56.224Z,21.02
2023-05-22T00:41:23.036Z,20.99
2023-05-22T00:43:51.515Z,21.05
2023-05-22T00:46:21.698Z,20.90
2023-05-22T00:48:49.239Z,21.01
2023-05-22T00:51:16.071Z,21.04
2023-05-22T00:53:43.504Z,20.81
2023-05-22T00:56:10.350Z,20.69
2023-05-22T00:58:37.715Z,20.69
2023-05-22T01:01:07.097Z,20.84
2023-05-22T01:03:35.813Z,20.95
2023-05-22T01:06:03.157Z,20.67
2023-05-22T01:08:29.910Z,20.52
2023-05-22T01:11:22.397Z,20.41
2023-05-22T01:14:01.196Z,20.10
2023-05-22T01:16:50.429Z,20.04
2023-05-22T01:19:54.313Z,20.46
2023-05-22T01:22:36.142Z,20.23
2023-05-22T01:25:17.110Z,20.61
2023-05-22T01:28:08.001Z,20.65
2023-05-22T01:30:45.891Z,20.58
2023-05-22T01:33:14.870Z,20.42
2023-05-22T01:35:41.865Z,20.63
2023-05-22T01:38:08.660Z,20.40
2023-05-22T01:40:36.701Z,20.37
2023-05-22T01:43:04.271Z,20.56
2023-05-22T01:45:31.842Z,20.55
2023-05-22T01:47:58.917Z,20.38
2023-05-22T01:50:26.581Z,20.76
2023-05-22T01:53:08.761Z,20.54
2023-05-22T01:56:00.990Z,20.64
2023-05-22T01:59:01.728Z,20.91
2023-05-22T02:01:31.500Z,20.86
2023-05-22T02:03:58.292Z,20.90
2023-05-22T02:06:29.175Z,20.90
2023-05-22T02:08:56.127Z,21.06
2023-05-22T02:11:22.994Z,20.96
2023-05-22T02:13:49.894Z,20.91
2023-05-22T02:16:19.418Z,20.90
2023-05-22T02:18:46.667Z,20.89
2023-05-22T02:21:13.424Z,20.95
2023-05-22T02:23:40.616Z,21.00
2023-05-22T02:26:08.410Z,20.95
2023-05-22T02:28:35.870Z,20.80
2023-05-22T02:31:03.819Z,20.99
2023-05-22T02:33:30.991Z,20.76
2023-05-22T02:35:57.771Z,20.44
2023-05-22T02:38:24.568Z,20.65
2023-05-22T02:40:52.137Z,20.46
2023-05-22T02:43:18.975Z,20.44
2023-05-22T02:45:46.001Z,20.55
2023-05-22T02:48:13.317Z,20.70
2023-05-22T02:50:40.512Z,20.95
2023-05-22T02:53:08.590Z,20.80
2023-05-22T02:55:36.054Z,20.94
2023-05-22T02:58:03.419Z,21.08
2023-05-22T03:00:30.533Z,21.41
2023-05-22T03:02:57.466Z,21.90
2023-05-22T03:05:24.358Z,22.17
2023-05-22T03:07:52.918Z,22.27
2023-05-22T03:10:19.869Z,22.31
2023-05-22T03:12:46.672Z,22.42
2023-05-22T03:15:13.862Z,22.56
2023-05-22T03:17:41.076Z,22.65
2023-05-22T03:20:10.623Z,22.73
2023-05-22T03:22:37.481Z,23.32
2023-05-22T03:25:06.466Z,23.85
2023-05-22T03:27:33.354Z,24.18
2023-05-22T03:30:06.121Z,24.34
2023-05-22T03:32:37.563Z,24.47
2023-05-22T03:35:05.759Z,24.87
2023-05-22T03:37:32.563Z,25.08
2023-05-22T03:39:59.940Z,25.60
2023-05-22T03:42:29.657Z,26.10
2023-05-22T03:44:56.695Z,26.55
2023-05-22T03:47:24.318Z,26.93
2023-05-22T03:49:51.696Z,27.28
2023-05-22T03:52:18.480Z,27.68
2023-05-22T03:54:45.467Z,27.88
2023-05-22T03:57:12.281Z,28.28
2023-05-22T03:59:39.145Z,28.55
2023-05-22T04:02:06.018Z,28.93
2023-05-22T04:04:38.540Z,29.09
2023-05-22T04:07:08.352Z,29.56
2023-05-22T04:09:35.575Z,29.98
2023-05-22T04:12:02.675Z,30.29
2023-05-22T04:14:29.539Z,30.62
2023-05-22T04:16:56.320Z,30.72
2023-05-22T04:19:23.561Z,31.00
2023-05-22T04:21:50.407Z,31.30
2023-05-22T04:24:18.481Z,31.41
2023-05-22T04:26:45.302Z,31.46
2023-05-22T04:29:14.603Z,31.70
2023-05-22T04:31:42.224Z,31.71
2023-05-22T04:34:15.327Z,32.17
2023-05-22T04:36:45.332Z,31.94
2023-05-22T04:39:14.060Z,32.08
2023-05-22T04:41:41.185Z,32.61
2023-05-22T04:44:08.263Z,32.68
2023-05-22T04:46:36.118Z,32.93
2023-05-22T04:49:03.397Z,33.22
2023-05-22T04:51:31.429Z,33.44
2023-05-22T04:53:58.549Z,33.73
2023-05-22T04:56:35.342Z,33.75
2023-05-22T04:59:05.685Z,33.87
2023-05-22T05:01:35.207Z,33.70
2023-05-22T05:04:03.249Z,33.56
2023-05-22T05:06:30.274Z,33.76
2023-05-22T05:08:57.205Z,33.93
2023-05-22T05:11:24.434Z,34.32
2023-05-22T05:13:51.240Z,34.37
2023-05-22T05:16:19.464Z,34.55
2023-05-22T05:18:46.329Z,34.98
2023-05-22T05:21:13.136Z,35.09
2023-05-22T05:23:40.000Z,34.80
2023-05-22T05:26:10.010Z,34.75
2023-05-22T05:28:37.415Z,34.77
2023-05-22T05:31:05.583Z,34.67
2023-05-22T05:34:08.049Z,34.86
2023-05-22T05:36:52.571Z,34.63
2023-05-22T05:39:22.304Z,34.63
2023-05-22T05:41:50.016Z,34.74
2023-05-22T05:44:16.868Z,34.63
2023-05-22T05:46:43.777Z,34.86
2023-05-22T05:49:16.576Z,35.21
2023-05-22T05:51:43.480Z,35.49
2023-05-22T05:54:11.365Z,35.54
2023-05-22T05:56:38.847Z,35.46
2023-05-22T05:59:05.961Z,35.47
2023-05-22T06:01:39.908Z,35.46
2023-05-22T06:04:10.322Z,35.36
2023-05-22T06:06:39.322Z,35.61
2023-05-22T06:09:15.123Z,35.84
2023-05-22T06:12:12.966Z,36.23
2023-05-22T06:14:41.461Z,36.42
2023-05-22T06:17:11.178Z,36.77
2023-05-22T06:19:39.504Z,37.02
2023-05-22T06:22:06.505Z,37.22
2023-05-22T06:24:33.937Z,37.50
2023-05-22T06:27:05.706Z,37.93
2023-05-22T06:29:32.447Z,38.12
2023-05-22T06:31:59.332Z,38.28
2023-05-22T06:34:27.702Z,38.16
2023-05-22T06:36:56.419Z,38.06
2023-05-22T06:39:25.163Z,38.24
2023-05-22T06:42:06.782Z,38.14
2023-05-22T06:44:53.934Z,37.92
2023-05-22T06:47:21.157Z,38.04
2023-05-22T06:49:47.932Z,38.21
2023-05-22T06:52:15.449Z,37.88
2023-05-22T06:54:43.997Z,37.49
2023-05-22T06:57:11.924Z,37.49
2023-05-22T06:59:38.950Z,37.53
2023-05-22T07:02:07.128Z,37.80
2023-05-22T07:04:52.524Z,38.12
2023-05-22T07:07:36.575Z,37.92
2023-05-22T07:10:03.612Z,37.62
2023-05-22T07:12:31.651Z,37.68
2023-05-22T07:15:00.385Z,38.14
2023-05-22T07:17:28.231Z,38.76
2023-05-22T07:19:56.365Z,39.13
2023-05-22T07:22:23.493Z,38.68
2023-05-22T07:24:50.547Z,38.28
2023-05-22T07:27:18.015Z,38.54
2023-05-22T07:29:46.030Z,38.44
2023-05-22T07:32:12.844Z,38.10
2023-05-22T07:34:41.552Z,38.04
2023-05-22T07:37:09.175Z,37.96
2023-05-22T07:39:36.252Z,37.85
2023-05-22T07:43:12.678Z,35.31
2023-05-22T07:45:40.526Z,36.76
2023-05-22T07:48:09.237Z,36.97
2023-05-22T07:50:36.276Z,37.15
2023-05-22T07:53:04.619Z,37.74
2023-05-22T07:55:32.581Z,38.08
2023-05-22T07:57:59.676Z,38.10
2023-05-22T08:00:32.429Z,38.16
2023-05-22T08:02:59.411Z,37.94
2023-05-22T08:05:26.690Z,37.90
2023-05-22T08:07:55.006Z,38.31
2023-05-22T08:10:22.017Z,38.45
2023-05-22T08:12:48.769Z,38.46
2023-05-22T08:15:15.633Z,38.85
2023-05-22T08:17:42.434Z,39.37
2023-05-22T08:20:10.327Z,39.49
2023-05-22T08:22:39.021Z,39.51
2023-05-22T08:25:06.456Z,39.16
2023-05-22T08:27:33.206Z,39.10
2023-05-22T08:30:00.172Z,39.10
2023-05-22T08:32:28.633Z,38.89
2023-05-22T08:34:56.653Z,38.57
2023-05-22T08:37:23.423Z,38.75
2023-05-22T08:39:50.308Z,39.23
2023-05-22T08:42:17.048Z,39.59
2023-05-22T08:44:43.831Z,39.73
2023-05-22T08:47:11.275Z,39.96
2023-05-22T08:49:38.949Z,40.07
2023-05-22T08:52:21.809Z,39.94
2023-05-22T08:54:53.223Z,39.90
2023-05-22T08:57:20.611Z,40.00
2023-05-22T08:59:47.424Z,40.40
2023-05-22T09:02:14.274Z,40.78
2023-05-22T09:04:41.568Z,40.65
2023-05-22T09:07:09.220Z,40.35
2023-05-22T09:09:39.164Z,39.80
2023-05-22T09:12:09.148Z,39.40
2023-05-22T09:14:41.036Z,39.65
2023-05-22T09:17:09.563Z,39.80
2023-05-22T09:19:36.515Z,39.62
2023-05-22T09:22:05.030Z,40.18
2023-05-22T09:24:32.462Z,40.52
2023-05-22T09:27:03.330Z,41.03
2023-05-22T09:29:30.211Z,41.08
2023-05-22T09:31:59.565Z,41.45
2023-05-22T09:34:30.698Z,41.73
2023-05-22T09:37:06.531Z,41.37
2023-05-22T09:39:43.436Z,40.68
2023-05-22T09:42:12.873Z,40.58
2023-05-22T09:44:39.586Z,40.23
2023-05-22T09:47:06.644Z,40.06
2023-05-22T09:49:42.763Z,39.64
2023-05-22T09:52:10.108Z,39.39
2023-05-22T09:54:37.220Z,39.82
2023-05-22T09:57:04.652Z,40.30
2023-05-22T09:59:33.187Z,40.75
2023-05-22T10:02:02.499Z,41.22
2023-05-22T10:04:30.730Z,41.22
2023-05-22T10:06:57.590Z,40.93
2023-05-22T10:09:26.297Z,40.17
2023-05-22T10:11:54.151Z,39.74
2023-05-22T10:14:20.988Z,40.10
2023-05-22T10:16:47.844Z,40.36
2023-05-22T10:19:14.646Z,40.69
2023-05-22T10:21:41.531Z,40.93
2023-05-22T10:24:08.339Z,41.55
2023-05-22T10:26:35.167Z,41.88
2023-05-22T10:29:13.931Z,42.01
2023-05-22T10:32:01.067Z,42.30
2023-05-22T10:34:38.930Z,42.36
2023-05-22T10:37:27.106Z,41.86
2023-05-22T10:40:12.053Z,41.23
2023-05-22T10:42:38.920Z,40.83
2023-05-22T10:45:09.414Z,40.94
2023-05-22T10:47:36.517Z,41.37
2023-05-22T10:50:11.254Z,41.74
2023-05-22T10:52:38.709Z,41.58
2023-05-22T10:55:09.438Z,41.19
2023-05-22T10:57:40.159Z,41.18
2023-05-22T11:00:11.892Z,40.94
2023-05-22T11:02:40.616Z,40.94
2023-05-22T11:05:22.778Z,41.22
2023-05-22T11:07:49.611Z,40.99
2023-05-22T11:10:45.858Z,40.75
2023-05-22T11:13:12.731Z,40.62
2023-05-22T11:15:43.827Z,40.71
2023-05-22T11:18:11.426Z,40.89
2023-05-22T11:20:40.151Z,40.86
2023-05-22T11:23:07.920Z,39.77
2023-05-22T11:25:35.564Z,40.41
2023-05-22T11:28:07.110Z,40.34
2023-05-22T11:30:34.234Z,40.22
2023-05-22T11:33:01.649Z,39.91
2023-05-22T11:35:29.958Z,39.87
2023-05-22T11:37:57.148Z,40.14
2023-05-22T11:40:25.817Z,40.32
2023-05-22T11:42:53.558Z,40.60
2023-05-22T11:45:20.595Z,40.94
2023-05-22T11:47:48.562Z,40.99
2023-05-22T11:50:22.742Z,40.49
2023-05-22T11:52:56.685Z,39.90
2023-05-22T11:55:24.731Z,40.04
2023-05-22T11:57:52.169Z,40.10
2023-05-22T12:00:20.502Z,39.92
2023-05-22T12:02:48.012Z,39.90
2023-05-22T12:05:16.683Z,39.85
2023-05-22T12:07:44.207Z,39.89
2023-05-22T12:10:12.410Z,39.90
2023-05-22T12:12:39.821Z,39.81
2023-05-22T12:15:07.676Z,39.85
2023-05-22T12:17:38.936Z,40.06
2023-05-22T12:20:07.293Z,40.09
2023-05-22T12:22:40.919Z,40.37
2023-05-22T12:25:14.182Z,40.47
2023-05-22T12:27:41.536Z,40.54
2023-05-22T12:30:10.686Z,40.54
2023-05-22T12:32:39.767Z,40.57
2023-05-22T12:35:14.556Z,40.56
2023-05-22T12:37:48.142Z,40.40
2023-05-22T12:40:16.018Z,39.98
2023-05-22T12:42:45.033Z,39.37
2023-05-22T12:45:13.529Z,38.99
2023-05-22T12:47:40.869Z,38.95
2023-05-22T12:50:08.764Z,38.76
2023-05-22T12:52:36.302Z,38.57
2023-05-22T12:55:04.705Z,38.48
2023-05-22T12:57:32.025Z,38.50
2023-05-22T12:59:59.400Z,38.45
2023-05-22T13:02:26.873Z,38.50
2023-05-22T13:04:54.255Z,38.40
2023-05-22T13:07:21.664Z,38.31
2023-05-22T13:09:48.982Z,38.45
2023-05-22T13:12:16.496Z,38.64
2023-05-22T13:14:44.245Z,38.49
2023-05-22T13:17:11.870Z,37.92
2023-05-22T13:19:39.347Z,37.53
2023-05-22T13:22:07.717Z,37.32
2023-05-22T13:24:35.130Z,37.27
2023-05-22T13:27:02.613Z,37.22
2023-05-22T13:29:29.944Z,37.24
2023-05-22T13:31:57.261Z,37.38
2023-05-22T13:34:24.754Z,37.40
2023-05-22T13:36:52.483Z,37.52
2023-05-22T13:39:19.860Z,37.35
2023-05-22T13:41:47.270Z,37.02
2023-05-22T13:44:14.866Z,36.89
2023-05-22T13:46:42.239Z,37.13
2023-05-22T13:49:09.631Z,37.08
2023-05-22T13:51:38.010Z,36.83
2023-05-22T13:54:06.227Z,36.65
2023-05-22T13:56:33.760Z,36.74
2023-05-22T13:59:01.602Z,36.80
2023-05-22T14:01:29.372Z,36.93
2023-05-22T14:03:56.826Z,37.08
2023-05-22T14:06:25.202Z,37.09
2023-05-22T14:08:52.920Z,36.81
2023-05-22T14:11:21.834Z,36.48
2023-05-22T14:13:50.123Z,36.48
2023-05-22T14:16:17.622Z,36.56
2023-05-22T14:18:45.002Z,36.73
2023-05-22T14:21:12.492Z,36.86
2023-05-22T14:23:39.842Z,37.00
2023-05-22T14:26:07.108Z,37.10
2023-05-22T14:28:34.432Z,37.07
2023-05-22T14:31:01.910Z,36.97
2023-05-22T14:33:30.682Z,37.01
2023-05-22T14:35:57.989Z,36.93
2023-05-22T14:38:26.302Z,36.57
2023-05-22T14:40:53.692Z,36.28
2023-05-22T14:43:21.038Z,36.30
2023-05-22T14:45:48.362Z,36.20
2023-05-22T14:48:16.115Z,36.17
2023-05-22T14:50:43.587Z,35.98
2023-05-22T14:53:11.692Z,35.98
2023-05-22T14:55:39.153Z,35.87
2023-05-22T14:58:06.669Z,35.64
2023-05-22T15:00:34.002Z,35.47
2023-05-22T15:03:02.928Z,35.36
2023-05-22T15:05:30.657Z,35.21
2023-05-22T15:07:58.716Z,35.11
2023-05-22T15:10:26.297Z,34.99
2023-05-22T15:12:53.890Z,35.09
2023-05-22T15:15:21.297Z,35.14
2023-05-22T15:17:48.734Z,34.91
2023-05-22T15:20:16.207Z,35.03
2023-05-22T15:22:43.518Z,35.24
2023-05-22T15:25:12.482Z,35.24
2023-05-22T15:27:39.800Z,35.26
2023-05-22T15:30:09.765Z,35.24
2023-05-22T15:32:37.596Z,35.20
2023-05-22T15:35:06.714Z,35.22
2023-05-22T15:37:34.327Z,35.18
2023-05-22T15:40:04.082Z,35.17
2023-05-22T15:42:31.662Z,35.04
2023-05-22T15:45:01.319Z,34.97
2023-05-22T15:47:29.773Z,35.05
2023-05-22T15:49:57.138Z,35.06
2023-05-22T15:52:24.659Z,35.09
2023-05-22T15:54:52.866Z,35.29
2023-05-22T15:57:20.582Z,35.31
2023-05-22T15:59:51.130Z,35.20
2023-05-22T16:02:18.932Z,35.38
2023-05-22T16:04:46.635Z,35.26
2023-05-22T16:07:13.953Z,35.21
2023-05-22T16:09:43.335Z,34.91
2023-05-22T16:12:10.695Z,35.06
2023-05-22T16:14:40.056Z,34.52
2023-05-22T16:17:07.902Z,34.33
2023-05-22T16:19:35.329Z,34.27
2023-05-22T16:22:03.588Z,34.22
2023-05-22T16:24:30.998Z,34.15
2023-05-22T16:26:59.433Z,34.22
2023-05-22T16:29:26.859Z,34.24
2023-05-22T16:31:54.331Z,34.00
2023-05-22T16:34:21.885Z,34.04
2023-05-22T16:36:49.219Z,33.99
2023-05-22T16:39:16.918Z,34.19
2023-05-22T16:41:44.602Z,34.16
2023-05-22T16:44:12.147Z,34.07
2023-05-22T16:46:39.515Z,33.96
2023-05-22T16:49:07.010Z,33.80
2023-05-22T16:51:34.449Z,33.85
2023-05-22T16:54:01.749Z,33.51
2023-05-22T16:56:34.193Z,33.25
2023-05-22T16:59:02.194Z,33.25
2023-05-22T17:01:29.846Z,33.28
2023-05-22T17:03:57.349Z,33.35
2023-05-22T17:06:24.885Z,33.55
2023-05-22T17:08:52.776Z,33.39
2023-05-22T17:11:20.436Z,33.17
2023-05-22T17:13:47.771Z,32.52
2023-05-22T17:16:15.129Z,32.31
2023-05-22T17:18:43.027Z,32.32
2023-05-22T17:21:10.762Z,32.18
2023-05-22T17:23:38.968Z,32.05
2023-05-22T17:26:06.492Z,32.07
2023-05-22T17:28:33.882Z,31.81
2023-05-22T17:31:01.290Z,31.30
2023-05-22T17:33:28.719Z,31.09
2023-05-22T17:35:56.515Z,31.18
2023-05-22T17:38:23.826Z,31.25
2023-05-22T17:40:52.263Z,31.18
2023-05-22T17:43:20.058Z,31.20
2023-05-22T17:45:50.652Z,31.07
2023-05-22T17:48:27.295Z,30.93
2023-05-22T17:50:54.935Z,30.90
2023-05-22T17:53:22.519Z,30.88
2023-05-22T17:55:52.350Z,30.69
2023-05-22T17:58:20.705Z,30.59
2023-05-22T18:00:48.988Z,30.50
2023-05-22T18:03:20.224Z,30.33
2023-05-22T18:05:51.219Z,30.34
2023-05-22T18:08:18.803Z,30.25
2023-05-22T18:10:46.352Z,30.15
2023-05-22T18:13:13.808Z,30.13
2023-05-22T18:15:41.275Z,30.05
2023-05-22T18:18:10.689Z,30.01
2023-05-22T18:20:39.637Z,29.96
2023-05-22T18:23:07.261Z,30.00
2023-05-22T18:25:34.608Z,29.82
2023-05-22T18:28:01.882Z,29.10
2023-05-22T18:30:29.305Z,27.44
2023-05-22T18:32:57.479Z,27.14
2023-05-22T18:35:25.005Z,27.10
2023-05-22T18:37:52.342Z,28.05
2023-05-22T18:40:19.728Z,28.78
2023-05-22T18:42:47.199Z,29.05
2023-05-22T18:45:14.724Z,29.04
2023-05-22T18:47:42.083Z,28.72
2023-05-22T18:50:09.977Z,28.38
2023-05-22T18:52:38.098Z,28.26
2023-05-22T18:55:05.845Z,28.28
2023-05-22T18:57:33.222Z,28.12
2023-05-22T19:00:00.964Z,28.03
2023-05-22T19:02:29.682Z,28.06
2023-05-22T19:04:58.194Z,28.07
2023-05-22T19:07:25.707Z,28.08
2023-05-22T19:09:57.100Z,28.02
2023-05-22T19:12:25.564Z,27.93
2023-05-22T19:14:52.949Z,27.88
2023-05-22T19:17:20.655Z,27.90
2023-05-22T19:19:48.186Z,28.05
2023-05-22T19:22:17.920Z,27.93
2023-05-22T19:24:48.462Z,27.98
2023-05-22T19:27:15.936Z,28.00
2023-05-22T19:29:43.265Z,28.08
2023-05-22T19:32:10.582Z,28.06
2023-05-22T19:34:37.888Z,28.02
2023-05-22T19:37:07.561Z,27.78
2023-05-22T19:39:34.905Z,27.50
2023-05-22T19:42:02.294Z,27.57
2023-05-22T19:44:29.582Z,27.79
2023-05-22T19:46:57.313Z,27.70
2023-05-22T19:49:24.667Z,27.72
2023-05-22T19:51:54.117Z,27.91
2023-05-22T19:54:22.808Z,27.97
2023-05-22T19:56:50.117Z,28.24
2023-05-22T20:00:22.795Z,25.06
2023-05-22T20:02:50.244Z,26.44
2023-05-22T20:05:17.689Z,26.84
2023-05-22T20:07:45.028Z,26.87
2023-05-22T20:10:12.668Z,26.81
2023-05-22T20:12:40.108Z,26.78
2023-05-22T20:15:08.266Z,26.86
2023-05-22T20:17:36.289Z,26.77
2023-05-22T20:20:04.527Z,26.83
2023-05-22T20:22:31.866Z,26.82
2023-05-22T20:25:01.317Z,26.82
2023-05-22T20:27:30.045Z,26.82
2023-05-22T20:29:59.899Z,26.88
2023-05-22T20:32:27.740Z,27.03
2023-05-22T20:34:56.179Z,27.07
2023-05-22T20:37:23.815Z,27.06
2023-05-22T20:39:51.883Z,27.14
2023-05-22T20:42:19.210Z,27.09
2023-05-22T20:44:46.756Z,26.98
2023-05-22T20:47:14.034Z,27.10
2023-05-22T20:49:41.554Z,26.99
2023-05-22T20:52:10.080Z,27.06
2023-05-22T20:54:37.561Z,26.96
2023-05-22T20:57:05.541Z,26.92
2023-05-22T20:59:32.902Z,27.15
2023-05-22T21:02:01.350Z,27.10
2023-05-22T21:04:28.817Z,27.19
2023-05-22T21:06:56.475Z,27.29
2023-05-22T21:09:23.873Z,27.36
2023-05-22T21:11:51.128Z,27.11
2023-05-22T21:14:18.454Z,27.15
2023-05-22T21:16:45.780Z,27.12
2023-05-22T21:19:13.136Z,27.27
2023-05-22T21:21:41.887Z,27.29
2023-05-22T21:24:12.263Z,27.21
2023-05-22T21:26:40.807Z,27.24
2023-05-22T21:29:08.123Z,27.40
2023-05-22T21:31:35.804Z,27.53
2023-05-22T21:34:03.418Z,27.41
2023-05-22T21:36:31.874Z,27.25
2023-05-22T21:39:00.625Z,27.43
2023-05-22T21:41:28.052Z,27.67
2023-05-22T21:43:55.442Z,27.72
2023-05-22T21:46:22.761Z,27.69
2023-05-22T21:48:50.267Z,27.71
2023-05-22T21:51:17.617Z,27.69
2023-05-22T21:53:45.518Z,27.60
2023-05-22T21:56:12.780Z,27.69
2023-05-22T21:58:40.185Z,27.59
2023-05-22T22:01:07.740Z,27.30
2023-05-22T22:03:35.251Z,27.10
2023-05-22T22:06:02.617Z,27.09
2023-05-22T22:08:30.117Z,27.16
2023-05-22T22:10:58.423Z,27.10
2023-05-22T22:13:25.718Z,27.21
2023-05-22T22:15:53.575Z,27.34
2023-05-22T22:18:20.993Z,27.36
2023-05-22T22:20:54.173Z,27.43
2023-05-22T22:23:22.047Z,27.34
2023-05-22T22:25:49.833Z,27.22
2023-05-22T22:28:17.267Z,27.14
2023-05-22T22:30:44.602Z,27.23
2023-05-22T22:33:11.985Z,27.30
2023-05-22T22:35:40.615Z,27.22
2023-05-22T22:38:08.201Z,27.18
2023-05-22T22:40:35.502Z,27.19
2023-05-22T22:43:03.797Z,27.18
2023-05-22T22:45:31.442Z,27.02
2023-05-22T22:48:00.682Z,26.95
2023-05-22T22:50:28.346Z,26.88
2023-05-22T22:52:55.723Z,26.88
2023-05-22T22:55:23.178Z,26.73
2023-05-22T22:57:51.090Z,26.74
2023-05-22T23:00:19.348Z,26.76
2023-05-22T23:02:46.946Z,26.70
2023-05-22T23:05:15.015Z,26.65
2023-05-22T23:07:44.405Z,26.53
2023-05-22T23:10:17.186Z,26.55
2023-05-22T23:12:44.689Z,24.71
2023-05-22T23:15:13.459Z,24.21
2023-05-22T23:17:41.460Z,23.96
2023-05-22T23:20:10.328Z,23.96
2023-05-22T23:22:37.807Z,23.98
2023-05-22T23:25:05.638Z,24.06
2023-05-22T23:27:35.204Z,24.08
2023-05-22T23:30:06.378Z,23.62
2023-05-22T23:32:33.764Z,24.36
2023-05-22T23:35:01.089Z,24.47
2023-05-22T23:37:28.379Z,24.41
2023-05-22T23:39:55.688Z,24.02
2023-05-22T23:42:23.197Z,23.69
2023-05-22T23:44:50.534Z,24.09
2023-05-22T23:47:18.830Z,24.44
2023-05-22T23:49:46.134Z,24.33
2023-05-22T23:52:13.640Z,23.88
2023-05-22T23:54:40.851Z,24.18
2023-05-22T23:57:08.463Z,25.25
2023-05-22T23:59:35.744Z,25.59
